Time;durP1;ratioP1;P1;durP2;ratioP2;P2;SDS_P1;SDS_P2;PMS_P1;PMS_P2;Temp;Humidity;BMP_temperature;BMP_pressure;BME280_temperature;BME280_humidity;BME280_pressure;Samples;Min_cycle;Max_cycle;Signal;HPM_P1;HPM_P2
2022/10/09 00:01:09;;;;;;;1.60;1.35;;;9.40;99.90;;;;;;5043399;28;20510;-78
2022/10/09 00:03:37;;;;;;;2.35;1.05;;;9.40;99.90;;;;;;5007087;28;20034;-77
2022/10/09 00:06:04;;;;;;;2.80;2.53;;;9.40;99.90;;;;;;4995652;28;20049;-78
2022/10/09 00:08:30;;;;;;;2.70;1.63;;;9.40;99.90;;;;;;5024036;28;20045;-77
2022/10/09 00:10:56;;;;;;;8.40;2.67;;;9.30;99.90;;;;;;5023983;28;20444;-76
2022/10/09 00:13:21;;;;;;;5.18;2.45;;;9.30;99.90;;;;;;5023421;28;20740;-77
2022/10/09 00:15:47;;;;;;;2.15;1.48;;;9.30;99.90;;;;;;5023906;28;20099;-76
2022/10/09 00:18:15;;;;;;;1.38;1.27;;;9.30;99.90;;;;;;5018343;28;20044;-76
2022/10/09 00:20:43;;;;;;;1.85;1.38;;;9.30;99.90;;;;;;5003850;28;20137;-77
2022/10/09 00:23:13;;;;;;;1.90;1.10;;;9.30;99.90;;;;;;5004462;28;20462;-76
2022/10/09 00:25:39;;;;;;;3.60;1.67;;;9.30;99.90;;;;;;5017303;28;20511;-77
2022/10/09 00:28:04;;;;;;;1.75;1.17;;;9.20;99.90;;;;;;5005294;28;20054;-78
2022/10/09 00:30:30;;;;;;;2.28;1.20;;;9.10;99.90;;;;;;5024425;28;20053;-76
2022/10/09 00:32:56;;;;;;;1.20;0.85;;;9.10;99.90;;;;;;5003673;28;20057;-76
2022/10/09 00:35:22;;;;;;;5.30;1.30;;;9.10;99.90;;;;;;4970559;28;20046;-78
2022/10/09 00:37:48;;;;;;;3.28;0.90;;;9.10;99.90;;;;;;5003431;28;20691;-78
2022/10/09 00:40:15;;;;;;;2.13;1.13;;;9.00;99.90;;;;;;5004016;28;20045;-77
2022/10/09 00:42:40;;;;;;;2.20;0.98;;;9.00;99.90;;;;;;5003869;28;20099;-77
2022/10/09 00:45:20;;;;;;;1.67;1.27;;;9.00;99.90;;;;;;5003225;28;20137;-76
2022/10/09 00:47:50;;;;;;;2.35;1.40;;;9.00;99.90;;;;;;5003770;28;20602;-77
2022/10/09 00:50:21;;;;;;;3.40;1.92;;;9.00;99.90;;;;;;5023632;28;20042;-76
2022/10/09 00:52:51;;;;;;;2.03;1.33;;;9.00;99.90;;;;;;5023410;28;20045;-77
2022/10/09 00:55:17;;;;;;;1.23;1.13;;;9.00;99.90;;;;;;5005812;28;20054;-76
2022/10/09 00:57:44;;;;;;;1.70;1.30;;;9.00;99.90;;;;;;5023258;28;20052;-77
2022/10/09 01:00:11;;;;;;;1.88;1.30;;;9.00;99.90;;;;;;5022901;28;20116;-78
2022/10/09 01:02:37;;;;;;;2.22;1.15;;;9.00;99.90;;;;;;5020886;28;20053;-76
2022/10/09 01:05:04;;;;;;;2.15;1.38;;;9.00;99.90;;;;;;5003870;28;20065;-76
2022/10/09 01:07:32;;;;;;;13.45;1.25;;;8.90;99.90;;;;;;5003944;28;20507;-76
2022/10/09 01:10:23;;;;;;;0.70;0.60;;;8.90;99.90;;;;;;4983011;28;20105;-77
2022/10/09 01:13:19;;;;;;;1.90;1.77;;;8.90;99.90;;;;;;4981544;28;20050;-77
2022/10/09 01:16:00;;;;;;;5.75;2.47;;;8.90;99.90;;;;;;4984222;28;20485;-77
2022/10/09 01:18:29;;;;;;;1.75;0.90;;;8.90;99.90;;;;;;5003700;28;20113;-77
2022/10/09 01:21:01;;;;;;;2.22;1.92;;;8.80;99.90;;;;;;5003503;28;20088;-78
2022/10/09 01:23:47;;;;;;;1.27;1.17;;;8.80;99.90;;;;;;5004162;28;20493;-78
2022/10/09 01:26:33;;;;;;;4.82;1.17;;;8.80;99.90;;;;;;5001931;28;20299;-76
2022/10/09 01:29:05;;;;;;;1.70;1.30;;;8.80;99.90;;;;;;5003183;28;20088;-77
2022/10/09 01:31:34;;;;;;;1.70;1.40;;;8.80;99.90;;;;;;4984721;28;20065;-76
2022/10/09 01:34:00;;;;;;;0.70;0.70;;;8.80;99.90;;;;;;4984010;28;20532;-77
2022/10/09 01:36:29;;;;;;;1.50;1.00;;;8.70;99.90;;;;;;4982426;28;20038;-75
2022/10/09 01:38:59;;;;;;;2.10;1.20;;;8.70;99.90;;;;;;4983789;28;20121;-78
2022/10/09 01:41:26;;;;;;;1.25;1.05;;;8.60;99.90;;;;;;4983846;28;20054;-77
2022/10/09 01:43:51;;;;;;;1.45;1.10;;;8.60;99.90;;;;;;4983678;28;20697;-76
2022/10/09 01:46:20;;;;;;;4.90;1.92;;;8.60;99.90;;;;;;5003602;28;20046;-75
2022/10/09 01:49:06;;;;;;;1.25;1.15;;;8.60;99.90;;;;;;5002869;28;20057;-78
2022/10/09 01:51:57;;;;;;;2.05;1.23;;;8.60;99.90;;;;;;5002983;28;20076;-77
2022/10/09 01:54:49;;;;;;;2.65;1.50;;;8.60;99.90;;;;;;5001235;28;20072;-76
2022/10/09 01:57:19;;;;;;;2.25;1.65;;;8.60;99.90;;;;;;5002808;28;20061;-76
2022/10/09 01:59:47;;;;;;;1.42;0.80;;;8.50;99.90;;;;;;5002609;28;20151;-76
2022/10/09 02:02:13;;;;;;;1.08;0.90;;;8.50;99.90;;;;;;5003358;28;20116;-77
2022/10/09 02:04:42;;;;;;;7.32;1.48;;;8.50;99.90;;;;;;5002946;28;20050;-76
2022/10/09 02:07:08;;;;;;;1.73;1.63;;;8.50;99.90;;;;;;5002073;28;20050;-76
2022/10/09 02:09:35;;;;;;;2.10;1.17;;;8.50;99.90;;;;;;5008683;28;20050;-78
2022/10/09 02:12:05;;;;;;;1.73;1.20;;;8.50;99.90;;;;;;5003129;28;20050;-76
2022/10/09 02:14:33;;;;;;;1.33;0.80;;;8.50;99.90;;;;;;4986851;28;20078;-80
2022/10/09 02:17:08;;;;;;;5.82;1.83;;;8.40;99.90;;;;;;5006768;28;20511;-78
2022/10/09 02:19:42;;;;;;;0.82;0.60;;;8.40;99.90;;;;;;4972898;28;20088;-76
2022/10/09 02:22:12;;;;;;;2.03;1.73;;;8.40;99.90;;;;;;5006615;28;20566;-78
2022/10/09 02:24:40;;;;;;;1.60;0.95;;;8.40;99.90;;;;;;5025383;28;20129;-77
2022/10/09 02:27:06;;;;;;;3.50;1.17;;;8.40;99.90;;;;;;5026083;28;20116;-76
2022/10/09 02:29:32;;;;;;;1.67;1.30;;;8.40;99.90;;;;;;5007537;28;20041;-77
2022/10/09 02:31:58;;;;;;;1.63;1.50;;;8.40;99.90;;;;;;5008812;28;20087;-78
2022/10/09 02:34:24;;;;;;;0.90;0.88;;;8.40;99.90;;;;;;5008581;28;20111;-78
2022/10/09 02:36:49;;;;;;;1.52;1.40;;;8.30;99.90;;;;;;5025431;28;20080;-78
2022/10/09 02:39:15;;;;;;;1.88;1.25;;;8.30;99.90;;;;;;5008402;28;20068;-76
2022/10/09 02:41:41;;;;;;;1.92;1.38;;;8.30;99.90;;;;;;4988463;28;20465;-76
2022/10/09 02:44:07;;;;;;;1.95;1.52;;;8.20;99.90;;;;;;5005551;28;20042;-76
2022/10/09 02:46:33;;;;;;;3.63;1.38;;;8.20;99.90;;;;;;5005833;28;20052;-77
2022/10/09 02:48:58;;;;;;;1.20;1.10;;;8.10;99.90;;;;;;5006257;28;20029;-76
2022/10/09 02:51:24;;;;;;;1.98;0.90;;;8.20;99.90;;;;;;4994518;28;20045;-76
2022/10/09 02:53:54;;;;;;;3.03;1.52;;;8.20;99.90;;;;;;5025722;28;20037;-79
2022/10/09 02:56:21;;;;;;;2.13;1.20;;;8.20;99.90;;;;;;5007992;28;20045;-77
2022/10/09 02:58:46;;;;;;;1.38;0.70;;;8.20;99.90;;;;;;5024800;28;20042;-76
2022/10/09 03:01:12;;;;;;;1.70;0.90;;;8.20;99.90;;;;;;5025687;28;20064;-77
2022/10/09 03:03:38;;;;;;;1.83;1.52;;;8.20;99.90;;;;;;5025307;28;20096;-76
2022/10/09 03:06:10;;;;;;;2.83;1.48;;;8.20;99.90;;;;;;5019482;28;20128;-78
2022/10/09 03:08:37;;;;;;;;;;;8.20;99.90;;;;;;5005976;28;20058;-76
2022/10/09 03:11:03;;;;;;;1.17;0.93;;;8.20;99.90;;;;;;4988540;28;19921;-78
2022/10/09 03:13:28;;;;;;;21.48;1.38;;;8.20;99.90;;;;;;5004885;28;20041;-77
2022/10/09 03:16:00;;;;;;;1.73;1.08;;;8.20;99.90;;;;;;4987759;28;20072;-76
2022/10/09 03:18:25;;;;;;;3.55;2.05;;;8.20;99.90;;;;;;5005475;28;20046;-77
2022/10/09 03:20:51;;;;;;;1.33;0.93;;;8.20;99.90;;;;;;5014604;28;20049;-77
2022/10/09 03:23:17;;;;;;;1.65;1.00;;;8.20;99.90;;;;;;5025414;28;20099;-76
2022/10/09 03:25:42;;;;;;;1.40;1.30;;;8.20;99.90;;;;;;5006961;28;20092;-77
2022/10/09 03:28:08;;;;;;;4.40;2.45;;;8.20;99.90;;;;;;5024266;28;20049;-76
2022/10/09 03:30:33;;;;;;;1.27;0.80;;;8.10;99.90;;;;;;5023862;28;20041;-76
2022/10/09 03:32:59;;;;;;;2.10;1.40;;;8.20;99.90;;;;;;5014586;28;20041;-78
2022/10/09 03:35:24;;;;;;;2.78;1.70;;;8.10;99.90;;;;;;4987839;28;20042;-76
2022/10/09 03:37:50;;;;;;;3.22;1.52;;;8.10;99.90;;;;;;5004604;28;20633;-78
2022/10/09 03:40:15;;;;;;;3.10;1.90;;;8.10;99.90;;;;;;5005912;28;20400;-76
2022/10/09 03:42:41;;;;;;;1.55;1.13;;;8.10;99.90;;;;;;4988007;28;20466;-77
2022/10/09 03:45:07;;;;;;;2.08;1.20;;;8.10;99.90;;;;;;5024864;28;20479;-77
2022/10/09 03:47:33;;;;;;;1.42;1.05;;;8.10;99.90;;;;;;5024399;28;20377;-76
2022/10/09 03:49:58;;;;;;;1.63;1.50;;;8.00;99.90;;;;;;5025208;28;20048;-76
2022/10/09 03:52:24;;;;;;;1.50;1.02;;;8.00;99.90;;;;;;5024566;28;20120;-76
2022/10/09 03:54:49;;;;;;;2.13;1.55;;;8.00;99.90;;;;;;5024206;28;20050;-77
2022/10/09 03:57:15;;;;;;;1.75;1.23;;;7.90;99.90;;;;;;5006690;28;20044;-78
2022/10/09 03:59:40;;;;;;;1.65;1.55;;;7.90;99.90;;;;;;4986658;28;20072;-76
2022/10/09 04:02:06;;;;;;;2.50;1.90;;;7.90;99.90;;;;;;5004950;28;20042;-77
2022/10/09 04:04:32;;;;;;;1.40;1.30;;;7.90;99.90;;;;;;5004295;28;20404;-77
2022/10/09 04:06:57;;;;;;;4.40;1.70;;;8.00;99.90;;;;;;4987541;28;20046;-76
2022/10/09 04:09:23;;;;;;;2.55;1.50;;;7.90;99.90;;;;;;5019481;28;20057;-77
2022/10/09 04:11:48;;;;;;;2.03;1.40;;;7.90;99.90;;;;;;5023966;28;20041;-77
2022/10/09 04:14:14;;;;;;;2.72;1.20;;;8.00;99.90;;;;;;5005823;28;20077;-78
2022/10/09 04:16:39;;;;;;;1.50;1.40;;;7.90;99.90;;;;;;5023857;28;20046;-76
2022/10/09 04:19:05;;;;;;;2.00;1.70;;;7.90;99.90;;;;;;5024118;28;20199;-76
2022/10/09 04:21:32;;;;;;;3.22;2.17;;;7.90;99.90;;;;;;5024712;28;20037;-78
2022/10/09 04:23:58;;;;;;;4.85;1.90;;;7.90;99.90;;;;;;5009921;28;20100;-76
2022/10/09 04:26:24;;;;;;;8.23;2.70;;;7.90;99.90;;;;;;5006457;28;20041;-76
2022/10/09 04:28:49;;;;;;;2.80;2.50;;;7.80;99.90;;;;;;5022907;28;20048;-77
2022/10/09 04:31:15;;;;;;;10.43;2.67;;;7.80;99.90;;;;;;5006245;28;20044;-76
2022/10/09 04:33:40;;;;;;;3.65;1.50;;;7.80;99.90;;;;;;5023363;28;20672;-78
2022/10/09 04:36:06;;;;;;;7.65;3.58;;;7.80;99.90;;;;;;4987881;28;20412;-76
2022/10/09 04:38:31;;;;;;;10.05;2.97;;;7.80;99.90;;;;;;5003682;28;20048;-79
2022/10/09 04:41:03;;;;;;;24.30;4.15;;;7.90;99.90;;;;;;5005023;28;20046;-78
2022/10/09 04:43:29;;;;;;;7.50;2.75;;;7.90;99.90;;;;;;5003200;28;20049;-78
2022/10/09 04:45:55;;;;;;;17.02;3.63;;;7.90;99.90;;;;;;5003894;28;20489;-76
2022/10/09 04:48:20;;;;;;;11.23;3.40;;;7.90;99.90;;;;;;5003824;28;20044;-77
2022/10/09 04:50:46;;;;;;;8.65;2.72;;;7.90;99.90;;;;;;5003384;28;20045;-76
2022/10/09 04:53:12;;;;;;;5.72;2.70;;;7.80;99.90;;;;;;5023632;28;20499;-78
2022/10/09 04:55:42;;;;;;;3.20;1.90;;;7.80;99.90;;;;;;5023179;28;20461;-76
2022/10/09 04:58:10;;;;;;;4.18;2.13;;;7.80;99.90;;;;;;5022703;28;20052;-76
2022/10/09 05:00:43;;;;;;;3.45;2.08;;;7.80;99.90;;;;;;5022852;28;20427;-78
2022/10/09 05:03:09;;;;;;;3.30;1.92;;;7.80;99.90;;;;;;5018696;28;20083;-76
2022/10/09 05:05:35;;;;;;;5.50;3.13;;;7.80;99.90;;;;;;5003603;28;20463;-77
2022/10/09 05:08:01;;;;;;;3.25;2.25;;;7.70;99.90;;;;;;5003898;28;20085;-78
2022/10/09 05:10:26;;;;;;;3.42;2.63;;;7.70;99.90;;;;;;5011053;28;20072;-77
2022/10/09 05:12:52;;;;;;;3.92;2.60;;;7.60;99.90;;;;;;5004464;28;20049;-76
2022/10/09 05:15:18;;;;;;;2.25;2.00;;;7.60;99.90;;;;;;5023323;28;20053;-75
2022/10/09 05:17:44;;;;;;;2.40;1.50;;;7.60;99.90;;;;;;5023270;28;20042;-77
2022/10/09 05:20:09;;;;;;;2.50;2.20;;;7.60;99.90;;;;;;5005566;28;20452;-78
2022/10/09 05:22:35;;;;;;;2.30;1.88;;;7.60;99.90;;;;;;5022701;28;20088;-76
2022/10/09 05:25:01;;;;;;;2.30;2.10;;;7.60;99.90;;;;;;5023595;28;20404;-76
2022/10/09 05:27:26;;;;;;;3.47;2.78;;;7.70;99.90;;;;;;5022744;28;20510;-76
2022/10/09 05:29:52;;;;;;;4.88;3.17;;;7.60;99.90;;;;;;5022950;28;20045;-78
2022/10/09 05:32:17;;;;;;;2.60;2.38;;;7.60;99.90;;;;;;5023066;28;20108;-78
2022/10/09 05:34:43;;;;;;;2.58;2.38;;;7.50;99.90;;;;;;5022877;28;20073;-76
2022/10/09 05:37:08;;;;;;;4.15;2.65;;;7.60;99.90;;;;;;5008469;28;20046;-76
2022/10/09 05:39:38;;;;;;;3.10;2.55;;;7.50;99.90;;;;;;5002903;28;20042;-76
2022/10/09 05:42:04;;;;;;;3.10;2.45;;;7.50;99.90;;;;;;5002590;28;20073;-79
2022/10/09 05:44:29;;;;;;;3.40;2.40;;;7.50;99.90;;;;;;4986192;28;20049;-76
2022/10/09 05:46:55;;;;;;;3.05;2.10;;;7.50;99.90;;;;;;5003427;28;20061;-76
2022/10/09 05:49:21;;;;;;;2.67;2.47;;;7.50;99.90;;;;;;5016366;28;20045;-76
2022/10/09 05:51:47;;;;;;;3.80;3.38;;;7.50;99.90;;;;;;5026689;28;20054;-77
2022/10/09 05:54:15;;;;;;;2.65;2.45;;;7.50;99.90;;;;;;5026843;28;20049;-78
2022/10/09 05:56:41;;;;;;;3.22;2.70;;;7.60;99.90;;;;;;5026793;28;20049;-76
2022/10/09 05:59:10;;;;;;;3.15;2.78;;;7.50;99.90;;;;;;5025716;28;20049;-77
2022/10/09 06:01:41;;;;;;;3.25;2.75;;;7.40;99.90;;;;;;5026484;28;20053;-78
2022/10/09 06:04:10;;;;;;;3.35;2.70;;;7.40;99.90;;;;;;5016892;28;20042;-76
2022/10/09 06:06:37;;;;;;;3.38;2.40;;;7.40;99.90;;;;;;4988842;28;20152;-77
2022/10/09 06:09:05;;;;;;;5.45;3.17;;;7.40;99.90;;;;;;5006483;28;20062;-76
2022/10/09 06:11:33;;;;;;;2.60;2.40;;;7.40;99.90;;;;;;5023425;28;20037;-76
2022/10/09 06:14:01;;;;;;;2.92;2.45;;;7.40;99.90;;;;;;5025848;28;20067;-78
2022/10/09 06:16:32;;;;;;;5.25;3.22;;;7.40;99.90;;;;;;5025276;28;20045;-76
2022/10/09 06:18:57;;;;;;;10.95;3.35;;;7.40;99.90;;;;;;5006468;28;20045;-77
2022/10/09 06:21:25;;;;;;;3.70;3.10;;;7.50;99.90;;;;;;5025952;28;20095;-77
2022/10/09 06:23:52;;;;;;;4.82;2.38;;;7.40;99.90;;;;;;5025850;28;20069;-77
2022/10/09 06:26:18;;;;;;;6.35;3.38;;;7.40;99.90;;;;;;5007598;28;20049;-75
2022/10/09 06:28:45;;;;;;;4.47;3.55;;;7.50;99.90;;;;;;5024922;28;20052;-77
2022/10/09 06:31:13;;;;;;;4.55;3.70;;;7.50;99.90;;;;;;5026314;28;20076;-77
2022/10/09 06:33:40;;;;;;;5.50;3.78;;;7.50;99.90;;;;;;5007868;28;20084;-76
2022/10/09 06:36:08;;;;;;;4.28;3.35;;;7.50;99.90;;;;;;5025851;28;20053;-76
2022/10/09 06:38:35;;;;;;;3.90;3.20;;;7.50;99.90;;;;;;5013637;28;20546;-77
2022/10/09 06:41:03;;;;;;;4.63;2.92;;;7.60;99.90;;;;;;5006380;28;20052;-75
2022/10/09 06:43:28;;;;;;;4.53;3.08;;;7.50;99.90;;;;;;4988564;28;20469;-75
2022/10/09 06:45:54;;;;;;;6.28;4.55;;;7.50;99.90;;;;;;4987994;28;20073;-77
2022/10/09 06:48:20;;;;;;;5.15;3.03;;;7.60;99.90;;;;;;5005923;28;20425;-78
2022/10/09 06:50:45;;;;;;;4.40;2.53;;;7.60;99.90;;;;;;5006963;28;20045;-77
2022/10/09 06:53:11;;;;;;;6.88;3.45;;;7.60;99.90;;;;;;5025513;28;20041;-76
2022/10/09 06:55:36;;;;;;;4.60;3.42;;;7.60;99.90;;;;;;5007505;28;20395;-75
2022/10/09 06:58:02;;;;;;;6.07;5.20;;;7.70;99.90;;;;;;5024700;28;20087;-77
2022/10/09 07:00:28;;;;;;;6.72;3.85;;;7.70;99.90;;;;;;5025038;28;20038;-78
2022/10/09 07:02:54;;;;;;;3.42;3.15;;;7.70;99.90;;;;;;5007972;28;20049;-75
2022/10/09 07:05:20;;;;;;;6.15;4.22;;;7.80;99.90;;;;;;5025044;28;20049;-75
2022/10/09 07:07:45;;;;;;;8.63;4.13;;;7.90;99.90;;;;;;4987740;28;20412;-75
2022/10/09 07:10:11;;;;;;;11.55;4.45;;;7.90;99.90;;;;;;4988962;28;20389;-76
2022/10/09 07:12:37;;;;;;;4.60;4.03;;;7.90;99.90;;;;;;5003997;28;20572;-77
2022/10/09 07:15:04;;;;;;;7.18;5.07;;;7.90;99.90;;;;;;5005614;28;20050;-75
2022/10/09 07:17:31;;;;;;;8.73;4.85;;;8.00;99.90;;;;;;5005711;28;20096;-75
2022/10/09 07:19:56;;;;;;;5.30;4.43;;;8.00;99.90;;;;;;5006500;28;20455;-76
2022/10/09 07:22:22;;;;;;;6.60;4.75;;;8.00;99.90;;;;;;5005216;28;20137;-76
2022/10/09 07:24:49;;;;;;;5.25;3.85;;;8.10;99.90;;;;;;5011175;28;20455;-76
2022/10/09 07:27:15;;;;;;;9.75;5.82;;;8.20;99.90;;;;;;5024011;28;20061;-75
2022/10/09 07:29:41;;;;;;;6.47;4.00;;;8.20;99.90;;;;;;5024758;28;20171;-75
2022/10/09 07:32:06;;;;;;;5.03;4.45;;;8.20;99.90;;;;;;5011698;28;20132;-77
2022/10/09 07:34:32;;;;;;;8.55;5.82;;;8.30;99.90;;;;;;4994867;28;20056;-77
2022/10/09 07:36:57;;;;;;;6.28;5.35;;;8.30;99.90;;;;;;5025041;28;20435;-75
2022/10/09 07:39:23;;;;;;;6.22;5.07;;;8.40;99.90;;;;;;5020275;28;20042;-80
2022/10/09 07:41:50;;;;;;;6.65;4.57;;;8.50;99.90;;;;;;5021182;28;20128;-79
2022/10/09 07:44:16;;;;;;;7.50;5.13;;;8.50;99.90;;;;;;5024939;28;20048;-79
2022/10/09 07:46:42;;;;;;;6.95;5.28;;;8.50;99.90;;;;;;5024076;28;20037;-77
2022/10/09 07:49:07;;;;;;;28.50;6.55;;;8.60;99.90;;;;;;5028360;28;20173;-79
2022/10/09 07:51:33;;;;;;;8.07;5.63;;;8.60;99.90;;;;;;5010148;28;20519;-83
2022/10/09 07:54:01;;;;;;;8.80;5.72;;;8.70;99.90;;;;;;5020669;28;20053;-81
2022/10/09 07:56:33;;;;;;;7.50;5.35;;;8.80;99.90;;;;;;5001963;28;20049;-79
2022/10/09 07:59:01;;;;;;;7.47;4.80;;;8.90;99.90;;;;;;5001023;28;20056;-79
2022/10/09 08:01:28;;;;;;;7.60;5.82;;;8.90;99.90;;;;;;5024639;28;20052;-80
2022/10/09 08:03:55;;;;;;;7.45;4.93;;;9.00;99.90;;;;;;5023971;28;20041;-78
2022/10/09 08:06:21;;;;;;;7.28;5.65;;;9.00;99.90;;;;;;5023328;28;20038;-79
2022/10/09 08:08:52;;;;;;;7.13;5.10;;;9.00;99.90;;;;;;5005383;28;20049;-78
2022/10/09 08:11:18;;;;;;;11.07;7.32;;;9.10;99.90;;;;;;5026501;28;20075;-77
2022/10/09 08:13:45;;;;;;;13.40;7.28;;;9.10;99.90;;;;;;5007708;28;20049;-79
2022/10/09 08:16:11;;;;;;;8.35;5.35;;;9.20;99.90;;;;;;5021556;28;20091;-80
2022/10/09 08:18:37;;;;;;;6.68;5.40;;;9.20;99.90;;;;;;5022531;28;20037;-77
2022/10/09 08:21:14;;;;;;;17.10;6.05;;;9.20;99.90;;;;;;5020890;28;20041;-76
2022/10/09 08:23:40;;;;;;;7.45;5.07;;;9.30;99.90;;;;;;5013560;28;20042;-78
2022/10/09 08:26:13;;;;;;;10.32;6.85;;;9.40;99.90;;;;;;5023200;28;20048;-77
2022/10/09 08:28:39;;;;;;;8.93;6.03;;;9.40;99.90;;;;;;5022333;28;20455;-76
2022/10/09 08:31:12;;;;;;;6.70;5.43;;;9.50;99.90;;;;;;5023122;28;20041;-76
2022/10/09 08:33:38;;;;;;;8.05;5.57;;;9.50;99.90;;;;;;5023708;28;20033;-76
2022/10/09 08:36:06;;;;;;;5.53;4.93;;;9.60;99.90;;;;;;5023763;28;20431;-76
2022/10/09 08:38:33;;;;;;;6.85;5.15;;;9.60;99.90;;;;;;5022617;28;20037;-77
2022/10/09 08:41:17;;;;;;;8.02;5.10;;;9.70;99.90;;;;;;5023582;28;20506;-76
2022/10/09 08:43:46;;;;;;;7.97;4.93;;;9.70;99.90;;;;;;5021416;28;20047;-76
2022/10/09 08:46:42;;;;;;;7.40;4.57;;;9.80;99.90;;;;;;5023715;28;20041;-77
2022/10/09 08:49:18;;;;;;;7.70;5.85;;;9.90;99.90;;;;;;5004074;28;20045;-76
2022/10/09 08:51:45;;;;;;;12.93;4.03;;;9.90;99.90;;;;;;5002946;28;20057;-78
2022/10/09 08:54:30;;;;;;;5.28;4.05;;;10.00;99.90;;;;;;5022767;28;20099;-76
2022/10/09 08:57:02;;;;;;;5.63;4.22;;;10.10;99.90;;;;;;5017842;28;20059;-77
2022/10/09 08:59:28;;;;;;;5.65;4.28;;;10.10;99.90;;;;;;5022260;28;20030;-76
2022/10/09 09:02:05;;;;;;;8.02;4.70;;;10.20;99.90;;;;;;5022909;28;20096;-76
2022/10/09 09:04:48;;;;;;;4.65;3.53;;;10.20;99.90;;;;;;5005456;28;20052;-77
2022/10/09 09:07:23;;;;;;;5.35;4.32;;;10.20;99.90;;;;;;5022133;28;20539;-76
2022/10/09 09:10:01;;;;;;;8.57;5.03;;;10.30;99.90;;;;;;5022223;28;20053;-77
2022/10/09 09:12:52;;;;;;;5.93;4.35;;;10.40;99.90;;;;;;5023906;28;20052;-75
2022/10/09 09:15:24;;;;;;;6.03;3.00;;;10.40;99.90;;;;;;5005142;28;20053;-76
2022/10/09 09:17:57;;;;;;;;;;;10.40;99.90;;;;;;5023406;28;20045;-75
2022/10/09 09:20:37;;;;;;;7.53;3.53;;;10.50;99.90;;;;;;5005427;28;19932;-82
2022/10/09 09:23:12;;;;;;;8.77;3.53;;;10.50;99.90;;;;;;5005939;28;20053;-75
2022/10/09 09:25:41;;;;;;;4.55;2.95;;;10.60;99.90;;;;;;5024955;28;20052;-76
2022/10/09 09:28:18;;;;;;;7.05;3.47;;;10.70;99.90;;;;;;5025052;28;20152;-76
2022/10/09 09:30:49;;;;;;;7.28;4.43;;;10.70;99.90;;;;;;5025689;28;20376;-78
2022/10/09 09:33:49;;;;;;;7.60;3.25;;;10.80;99.90;;;;;;5028936;28;20030;-77
2022/10/09 09:36:22;;;;;;;4.93;3.10;;;10.90;99.90;;;;;;5011472;28;20046;-75
2022/10/09 09:38:49;;;;;;;8.70;4.22;;;11.00;99.90;;;;;;5008677;28;20045;-76
2022/10/09 09:41:15;;;;;;;4.63;2.13;;;11.00;99.90;;;;;;5024713;28;20071;-76
2022/10/09 09:43:41;;;;;;;3.90;2.17;;;11.10;99.90;;;;;;5025485;28;20038;-79
2022/10/09 09:46:14;;;;;;;5.20;2.92;;;11.10;99.90;;;;;;5038097;28;20116;-78
2022/10/09 09:48:43;;;;;;;5.22;2.67;;;11.20;99.90;;;;;;5038483;28;20049;-79
2022/10/09 09:51:27;;;;;;;9.20;3.75;;;11.20;99.90;;;;;;5026150;28;20049;-74
2022/10/09 09:54:00;;;;;;;4.68;2.75;;;11.30;99.90;;;;;;5025827;28;20052;-75
2022/10/09 09:56:41;;;;;;;4.30;1.95;;;11.40;99.90;;;;;;5024530;28;20037;-78
2022/10/09 09:59:23;;;;;;;4.32;2.35;;;11.40;99.90;;;;;;5025137;28;20034;-74
2022/10/09 10:01:59;;;;;;;6.30;3.25;;;11.40;99.90;;;;;;5022337;28;20049;-74
2022/10/09 10:04:27;;;;;;;5.07;2.15;;;11.50;99.90;;;;;;5024181;28;20155;-76
2022/10/09 10:06:53;;;;;;;4.18;2.97;;;11.50;99.90;;;;;;5024138;28;20037;-77
2022/10/09 10:09:19;;;;;;;9.65;2.65;;;11.60;99.90;;;;;;5017785;28;20133;-78
2022/10/09 10:12:00;;;;;;;6.70;2.85;;;11.70;99.90;;;;;;5014746;28;20682;-74
2022/10/09 10:14:26;;;;;;;5.28;2.85;;;11.70;99.90;;;;;;5025493;28;20068;-76
2022/10/09 10:16:54;;;;;;;4.10;2.25;;;11.70;99.90;;;;;;5025844;28;20049;-80
2022/10/09 10:19:23;;;;;;;7.38;2.60;;;11.70;99.90;;;;;;5018382;28;20524;-78
2022/10/09 10:22:19;;;;;;;3.70;2.10;;;11.80;99.90;;;;;;5008837;28;20041;-79
2022/10/09 10:24:47;;;;;;;5.68;2.15;;;11.80;99.90;;;;;;5024906;28;20377;-83
2022/10/09 10:27:31;;;;;;;4.22;2.63;;;11.80;99.90;;;;;;5025014;28;20496;-76
2022/10/09 10:30:10;;;;;;;1.77;1.42;;;11.90;99.90;;;;;;5024160;28;20416;-77
2022/10/09 10:33:00;;;;;;;5.78;2.60;;;11.90;99.90;;;;;;5025219;28;20469;-77
2022/10/09 10:35:33;;;;;;;2.17;1.95;;;12.00;99.90;;;;;;5023582;28;20116;-77
2022/10/09 10:38:25;;;;;;;7.00;2.30;;;12.10;99.90;;;;;;5024589;28;20091;-77
2022/10/09 10:41:21;;;;;;;8.38;2.70;;;12.10;99.90;;;;;;5006839;28;20073;-76
2022/10/09 10:44:34;;;;;;;2.72;2.45;;;12.10;99.90;;;;;;5006799;28;20049;-77
2022/10/09 10:47:06;;;;;;;2.80;2.42;;;12.10;99.90;;;;;;4947619;28;20049;-77
2022/10/09 10:49:31;;;;;;;5.45;2.40;;;12.20;99.90;;;;;;4953278;28;20043;-78
2022/10/09 10:52:14;;;;;;;2.80;2.00;;;12.20;99.90;;;;;;4984791;28;20080;-77
2022/10/09 10:55:02;;;;;;;4.40;1.65;;;12.20;99.90;;;;;;4990163;28;20488;-77
2022/10/09 10:57:37;;;;;;;3.97;1.95;;;12.30;99.90;;;;;;5021453;28;20052;-78
2022/10/09 11:00:05;;;;;;;2.67;1.40;;;12.30;99.90;;;;;;5006028;28;20056;-78
2022/10/09 11:02:42;;;;;;;2.35;1.67;;;12.30;99.90;;;;;;5017061;28;20052;-74
2022/10/09 11:05:35;;;;;;;1.58;1.05;;;12.30;99.90;;;;;;5019629;28;20052;-75
2022/10/09 11:08:07;;;;;;;4.35;1.27;;;12.30;99.90;;;;;;4999631;28;20052;-76
2022/10/09 11:10:58;;;;;;;3.33;2.03;;;12.30;99.90;;;;;;5017153;28;20068;-78
2022/10/09 11:13:52;;;;;;;4.13;2.15;;;12.30;99.90;;;;;;5005825;28;20495;-76
2022/10/09 11:16:50;;;;;;;7.65;1.35;;;12.30;99.90;;;;;;5003346;28;20058;-78
2022/10/09 11:19:46;;;;;;;2.75;1.75;;;12.40;99.90;;;;;;5024316;28;20083;-77
2022/10/09 11:22:27;;;;;;;1.50;1.38;;;12.40;99.90;;;;;;5011537;28;20057;-77
2022/10/09 11:25:02;;;;;;;2.10;1.63;;;12.50;99.90;;;;;;5024538;28;20073;-77
2022/10/09 11:28:02;;;;;;;3.60;1.95;;;12.50;99.90;;;;;;5025268;28;20064;-80
2022/10/09 11:30:33;;;;;;;2.78;1.25;;;12.50;99.90;;;;;;5025095;28;20040;-78
2022/10/09 11:33:09;;;;;;;5.55;1.48;;;12.50;99.90;;;;;;5002419;28;20120;-79
2022/10/09 11:35:56;;;;;;;3.90;1.08;;;12.50;99.90;;;;;;5023760;28;20710;-77
2022/10/09 11:38:30;;;;;;;1.58;1.30;;;12.60;99.90;;;;;;5024513;28;20120;-77
2022/10/09 11:40:57;;;;;;;3.45;2.58;;;12.60;99.90;;;;;;4993505;28;20057;-77
2022/10/09 11:43:25;;;;;;;5.05;1.30;;;12.60;99.90;;;;;;4997794;28;20080;-78
2022/10/09 11:46:06;;;;;;;1.67;1.00;;;12.60;99.90;;;;;;5005277;28;20115;-79
2022/10/09 11:49:10;;;;;;;6.57;1.40;;;12.70;99.90;;;;;;4985667;28;20040;-80
2022/10/09 11:52:07;;;;;;;0.93;0.88;;;12.70;99.90;;;;;;5000503;28;20183;-79
2022/10/09 11:54:34;;;;;;;2.95;1.70;;;12.80;99.90;;;;;;5002086;28;20504;-82
2022/10/09 11:57:03;;;;;;;1.40;1.17;;;12.80;99.90;;;;;;4997805;28;20052;-79
2022/10/09 11:59:35;;;;;;;3.45;1.80;;;12.90;99.90;;;;;;5030947;28;20038;-79
2022/10/09 12:02:26;;;;;;;5.25;1.65;;;12.80;99.90;;;;;;5010017;28;20052;-79
2022/10/09 12:04:52;;;;;;;1.45;1.15;;;12.90;99.90;;;;;;5028786;28;20556;-80
2022/10/09 12:07:44;;;;;;;3.17;1.70;;;12.90;99.90;;;;;;5020054;28;20037;-80
2022/10/09 12:10:32;;;;;;;5.53;1.52;;;12.90;99.90;;;;;;5012116;28;20050;-80
2022/10/09 12:13:04;;;;;;;1.38;1.27;;;12.90;99.90;;;;;;5018688;28;20041;-81
2022/10/09 12:15:57;;;;;;;2.03;1.60;;;12.90;99.90;;;;;;5018610;28;20428;-81
2022/10/09 12:18:43;;;;;;;1.75;0.82;;;13.00;99.90;;;;;;5006218;28;20060;-80
2022/10/09 12:21:22;;;;;;;8.82;1.65;;;13.00;99.90;;;;;;5006001;28;20049;-80
2022/10/09 12:23:49;;;;;;;2.00;1.00;;;13.10;99.90;;;;;;5004033;28;20041;-80
2022/10/09 12:26:16;;;;;;;2.83;1.55;;;13.10;99.90;;;;;;5018963;28;20140;-80
2022/10/09 12:28:49;;;;;;;3.95;2.10;;;13.10;99.90;;;;;;5011175;28;20467;-79
2022/10/09 12:31:26;;;;;;;2.83;1.80;;;13.10;99.90;;;;;;5024353;28;20037;-80
2022/10/09 12:33:57;;;;;;;6.80;2.42;;;13.10;99.90;;;;;;5022454;28;20056;-79
2022/10/09 12:36:27;;;;;;;4.80;2.35;;;13.10;99.90;;;;;;5016182;28;20422;-79
2022/10/09 12:38:53;;;;;;;2.50;2.17;;;13.20;99.90;;;;;;5019151;28;20048;-82
2022/10/09 12:41:31;;;;;;;4.13;1.55;;;13.20;99.90;;;;;;4996512;28;20284;-81
2022/10/09 12:43:57;;;;;;;1.85;1.58;;;13.20;99.90;;;;;;5019024;28;20079;-81
2022/10/09 12:46:36;;;;;;;3.03;1.52;;;13.20;99.90;;;;;;5002133;28;20049;-82
2022/10/09 12:49:05;;;;;;;6.05;1.60;;;13.20;99.90;;;;;;5019192;28;20140;-83
2022/10/09 12:51:32;;;;;;;3.72;1.55;;;13.30;99.90;;;;;;5000548;28;20037;-78
2022/10/09 12:53:58;;;;;;;5.35;2.25;;;13.30;99.90;;;;;;5003379;28;20045;-78
2022/10/09 12:56:37;;;;;;;1.85;1.33;;;13.30;99.90;;;;;;5012046;28;20571;-78
2022/10/09 12:59:03;;;;;;;2.03;1.75;;;13.40;99.90;;;;;;5020252;28;20052;-79
2022/10/09 13:01:29;;;;;;;3.97;1.75;;;13.40;99.90;;;;;;5023085;28;20064;-78
2022/10/09 13:04:03;;;;;;;4.38;1.20;;;13.40;99.90;;;;;;5019137;28;20045;-78
2022/10/09 13:06:42;;;;;;;2.15;1.42;;;13.50;99.90;;;;;;5018160;28;20037;-77
2022/10/09 13:09:20;;;;;;;2.67;1.30;;;13.40;99.90;;;;;;4996596;28;20052;-78
2022/10/09 13:11:53;;;;;;;4.50;1.58;;;13.40;99.90;;;;;;5019160;28;20046;-77